sensor_id;sensor_type;location;lat;lon;timestamp;P1;durP1;ratioP1;P2;durP2;ratioP2
27895;SDS011;15241;48.374;10.876;2023-07-20T00:02:23;2.67;;;1.80;;
27895;SDS011;15241;48.374;10.876;2023-07-20T00:07:41;7.03;;;1.82;;
27895;SDS011;15241;48.374;10.876;2023-07-20T00:12:59;5.45;;;1.92;;
27895;SDS011;15241;48.374;10.876;2023-07-20T00:18:16;2.02;;;1.35;;
27895;SDS011;15241;48.374;10.876;2023-07-20T00:23:34;3.25;;;1.60;;
27895;SDS011;15241;48.374;10.876;2023-07-20T00:28:51;3.08;;;1.67;;
27895;SDS011;15241;48.374;10.876;2023-07-20T00:34:09;3.87;;;1.62;;
27895;SDS011;15241;48.374;10.876;2023-07-20T00:39:26;3.30;;;1.37;;
27895;SDS011;15241;48.374;10.876;2023-07-20T00:44:44;2.87;;;1.52;;
27895;SDS011;15241;48.374;10.876;2023-07-20T00:50:01;5.22;;;1.30;;
27895;SDS011;15241;48.374;10.876;2023-07-20T00:55:20;3.45;;;1.40;;
27895;SDS011;15241;48.374;10.876;2023-07-20T01:00:38;3.33;;;1.40;;
27895;SDS011;15241;48.374;10.876;2023-07-20T01:05:59;3.70;;;1.10;;
27895;SDS011;15241;48.374;10.876;2023-07-20T01:11:20;1.42;;;1.02;;
27895;SDS011;15241;48.374;10.876;2023-07-20T01:16:38;3.60;;;1.47;;
27895;SDS011;15241;48.374;10.876;2023-07-20T01:21:57;3.05;;;1.20;;
27895;SDS011;15241;48.374;10.876;2023-07-20T01:27:22;3.77;;;1.25;;
27895;SDS011;15241;48.374;10.876;2023-07-20T01:32:43;4.20;;;1.15;;
27895;SDS011;15241;48.374;10.876;2023-07-20T01:38:02;2.00;;;1.20;;
27895;SDS011;15241;48.374;10.876;2023-07-20T01:43:22;2.35;;;1.27;;
27895;SDS011;15241;48.374;10.876;2023-07-20T01:48:40;6.85;;;1.45;;
27895;SDS011;15241;48.374;10.876;2023-07-20T01:53:57;2.77;;;1.30;;
27895;SDS011;15241;48.374;10.876;2023-07-20T01:59:15;1.55;;;1.25;;
27895;SDS011;15241;48.374;10.876;2023-07-20T02:04:32;1.62;;;1.30;;
27895;SDS011;15241;48.374;10.876;2023-07-20T02:09:50;6.22;;;1.42;;
27895;SDS011;15241;48.374;10.876;2023-07-20T02:15:09;2.62;;;1.40;;
27895;SDS011;15241;48.374;10.876;2023-07-20T02:20:26;6.28;;;2.35;;
27895;SDS011;15241;48.374;10.876;2023-07-20T02:25:43;3.72;;;1.72;;
27895;SDS011;15241;48.374;10.876;2023-07-20T02:31:01;2.22;;;1.80;;
27895;SDS011;15241;48.374;10.876;2023-07-20T02:36:18;3.95;;;1.47;;
27895;SDS011;15241;48.374;10.876;2023-07-20T02:41:35;3.33;;;1.80;;
27895;SDS011;15241;48.374;10.876;2023-07-20T02:46:53;3.70;;;2.30;;
27895;SDS011;15241;48.374;10.876;2023-07-20T02:52:11;7.33;;;1.67;;
27895;SDS011;15241;48.374;10.876;2023-07-20T02:57:28;2.75;;;1.60;;
27895;SDS011;15241;48.374;10.876;2023-07-20T03:02:46;2.52;;;2.00;;
27895;SDS011;15241;48.374;10.876;2023-07-20T03:08:04;3.05;;;1.60;;
27895;SDS011;15241;48.374;10.876;2023-07-20T03:13:21;4.87;;;2.15;;
27895;SDS011;15241;48.374;10.876;2023-07-20T03:18:39;2.50;;;1.37;;
27895;SDS011;15241;48.374;10.876;2023-07-20T03:23:57;4.00;;;1.90;;
27895;SDS011;15241;48.374;10.876;2023-07-20T03:29:14;3.60;;;2.00;;
27895;SDS011;15241;48.374;10.876;2023-07-20T03:34:32;4.62;;;1.70;;
27895;SDS011;15241;48.374;10.876;2023-07-20T03:39:50;3.85;;;1.60;;
27895;SDS011;15241;48.374;10.876;2023-07-20T03:45:09;4.40;;;1.70;;
27895;SDS011;15241;48.374;10.876;2023-07-20T03:50:26;8.38;;;1.60;;
27895;SDS011;15241;48.374;10.876;2023-07-20T03:55:45;3.10;;;1.52;;
27895;SDS011;15241;48.374;10.876;2023-07-20T04:01:03;5.15;;;1.77;;
27895;SDS011;15241;48.374;10.876;2023-07-20T04:11:56;2.75;;;1.75;;
27895;SDS011;15241;48.374;10.876;2023-07-20T04:17:14;3.70;;;1.85;;
27895;SDS011;15241;48.374;10.876;2023-07-20T04:22:31;2.77;;;1.77;;
27895;SDS011;15241;48.374;10.876;2023-07-20T04:27:48;4.20;;;1.72;;
27895;SDS011;15241;48.374;10.876;2023-07-20T04:33:06;4.50;;;2.17;;
27895;SDS011;15241;48.374;10.876;2023-07-20T04:38:24;2.60;;;1.67;;
27895;SDS011;15241;48.374;10.876;2023-07-20T04:43:41;3.80;;;1.80;;
27895;SDS011;15241;48.374;10.876;2023-07-20T04:48:59;5.00;;;1.72;;
27895;SDS011;15241;48.374;10.876;2023-07-20T04:54:16;4.00;;;2.20;;
27895;SDS011;15241;48.374;10.876;2023-07-20T04:59:34;3.83;;;1.80;;
27895;SDS011;15241;48.374;10.876;2023-07-20T05:04:52;9.28;;;2.12;;
27895;SDS011;15241;48.374;10.876;2023-07-20T05:10:10;3.37;;;1.92;;
27895;SDS011;15241;48.374;10.876;2023-07-20T05:15:28;3.02;;;1.80;;
27895;SDS011;15241;48.374;10.876;2023-07-20T05:20:46;2.62;;;1.85;;
27895;SDS011;15241;48.374;10.876;2023-07-20T05:26:03;4.17;;;2.20;;
27895;SDS011;15241;48.374;10.876;2023-07-20T05:31:20;3.08;;;2.20;;
27895;SDS011;15241;48.374;10.876;2023-07-20T05:36:38;2.30;;;1.50;;
27895;SDS011;15241;48.374;10.876;2023-07-20T05:41:55;4.33;;;2.05;;
27895;SDS011;15241;48.374;10.876;2023-07-20T05:47:13;2.60;;;1.52;;
27895;SDS011;15241;48.374;10.876;2023-07-20T05:52:30;2.90;;;1.90;;
27895;SDS011;15241;48.374;10.876;2023-07-20T05:57:48;4.03;;;2.00;;
27895;SDS011;15241;48.374;10.876;2023-07-20T06:03:05;4.03;;;1.90;;
27895;SDS011;15241;48.374;10.876;2023-07-20T06:08:23;4.08;;;2.05;;
27895;SDS011;15241;48.374;10.876;2023-07-20T06:13:41;3.00;;;1.65;;
27895;SDS011;15241;48.374;10.876;2023-07-20T06:18:59;4.05;;;2.47;;
27895;SDS011;15241;48.374;10.876;2023-07-20T06:24:17;4.62;;;1.87;;
27895;SDS011;15241;48.374;10.876;2023-07-20T06:29:35;4.03;;;1.95;;
27895;SDS011;15241;48.374;10.876;2023-07-20T06:34:52;3.95;;;2.02;;
27895;SDS011;15241;48.374;10.876;2023-07-20T06:40:11;3.00;;;1.92;;
27895;SDS011;15241;48.374;10.876;2023-07-20T06:45:28;4.25;;;2.25;;
27895;SDS011;15241;48.374;10.876;2023-07-20T06:50:46;3.37;;;1.92;;
27895;SDS011;15241;48.374;10.876;2023-07-20T06:56:04;3.47;;;1.65;;
27895;SDS011;15241;48.374;10.876;2023-07-20T07:01:22;4.03;;;1.90;;
27895;SDS011;15241;48.374;10.876;2023-07-20T07:06:39;5.35;;;1.82;;
27895;SDS011;15241;48.374;10.876;2023-07-20T07:11:57;2.40;;;1.82;;
27895;SDS011;15241;48.374;10.876;2023-07-20T07:17:15;2.40;;;1.80;;
27895;SDS011;15241;48.374;10.876;2023-07-20T07:22:32;3.87;;;2.00;;
27895;SDS011;15241;48.374;10.876;2023-07-20T07:27:50;2.52;;;2.25;;
27895;SDS011;15241;48.374;10.876;2023-07-20T07:33:08;3.30;;;2.05;;
27895;SDS011;15241;48.374;10.876;2023-07-20T07:38:25;4.62;;;1.65;;
27895;SDS011;15241;48.374;10.876;2023-07-20T07:43:43;5.20;;;2.05;;
27895;SDS011;15241;48.374;10.876;2023-07-20T07:49:01;6.60;;;2.00;;
27895;SDS011;15241;48.374;10.876;2023-07-20T07:54:09;4.45;;;2.00;;
27895;SDS011;15241;48.374;10.876;2023-07-20T07:59:26;3.77;;;1.80;;
27895;SDS011;15241;48.374;10.876;2023-07-20T08:04:43;3.45;;;1.90;;
27895;SDS011;15241;48.374;10.876;2023-07-20T08:10:00;4.65;;;1.50;;
27895;SDS011;15241;48.374;10.876;2023-07-20T08:15:18;5.12;;;1.65;;
27895;SDS011;15241;48.374;10.876;2023-07-20T08:20:36;3.52;;;1.85;;
27895;SDS011;15241;48.374;10.876;2023-07-20T08:25:53;3.62;;;1.60;;
27895;SDS011;15241;48.374;10.876;2023-07-20T08:31:11;4.62;;;1.90;;
27895;SDS011;15241;48.374;10.876;2023-07-20T08:36:28;4.22;;;1.80;;
27895;SDS011;15241;48.374;10.876;2023-07-20T08:41:46;4.35;;;2.10;;
27895;SDS011;15241;48.374;10.876;2023-07-20T08:47:07;4.80;;;1.47;;
27895;SDS011;15241;48.374;10.876;2023-07-20T08:52:25;2.90;;;1.70;;
27895;SDS011;15241;48.374;10.876;2023-07-20T08:57:45;2.72;;;1.77;;
27895;SDS011;15241;48.374;10.876;2023-07-20T09:03:04;2.60;;;1.70;;
27895;SDS011;15241;48.374;10.876;2023-07-20T09:08:22;2.83;;;1.80;;
27895;SDS011;15241;48.374;10.876;2023-07-20T09:13:40;2.20;;;1.65;;
27895;SDS011;15241;48.374;10.876;2023-07-20T09:18:58;2.15;;;1.47;;
27895;SDS011;15241;48.374;10.876;2023-07-20T09:24:16;2.83;;;1.52;;
27895;SDS011;15241;48.374;10.876;2023-07-20T09:29:34;3.42;;;1.55;;
27895;SDS011;15241;48.374;10.876;2023-07-20T09:35:01;3.08;;;1.45;;
27895;SDS011;15241;48.374;10.876;2023-07-20T09:40:19;3.58;;;1.50;;
27895;SDS011;15241;48.374;10.876;2023-07-20T09:45:39;3.70;;;2.00;;
27895;SDS011;15241;48.374;10.876;2023-07-20T09:50:58;3.75;;;1.45;;
27895;SDS011;15241;48.374;10.876;2023-07-20T09:56:16;3.17;;;1.80;;
27895;SDS011;15241;48.374;10.876;2023-07-20T10:01:34;1.75;;;1.52;;
27895;SDS011;15241;48.374;10.876;2023-07-20T10:06:53;2.08;;;1.50;;
27895;SDS011;15241;48.374;10.876;2023-07-20T10:12:13;2.52;;;1.80;;
27895;SDS011;15241;48.374;10.876;2023-07-20T10:17:32;2.08;;;1.50;;
27895;SDS011;15241;48.374;10.876;2023-07-20T10:22:53;2.72;;;1.55;;
27895;SDS011;15241;48.374;10.876;2023-07-20T10:28:11;4.20;;;1.90;;
27895;SDS011;15241;48.374;10.876;2023-07-20T10:33:29;2.05;;;1.77;;
27895;SDS011;15241;48.374;10.876;2023-07-20T10:38:53;2.42;;;1.45;;
27895;SDS011;15241;48.374;10.876;2023-07-20T10:49:27;3.33;;;1.80;;
27895;SDS011;15241;48.374;10.876;2023-07-20T10:54:48;3.90;;;1.87;;
27895;SDS011;15241;48.374;10.876;2023-07-20T11:00:11;2.02;;;1.70;;
27895;SDS011;15241;48.374;10.876;2023-07-20T11:05:37;2.58;;;1.72;;
27895;SDS011;15241;48.374;10.876;2023-07-20T11:16:39;4.80;;;2.40;;
27895;SDS011;15241;48.374;10.876;2023-07-20T11:21:57;4.47;;;1.62;;
27895;SDS011;15241;48.374;10.876;2023-07-20T11:27:15;5.17;;;1.45;;
27895;SDS011;15241;48.374;10.876;2023-07-20T11:32:33;4.15;;;1.95;;
27895;SDS011;15241;48.374;10.876;2023-07-20T11:37:50;3.72;;;1.52;;
27895;SDS011;15241;48.374;10.876;2023-07-20T11:43:08;2.85;;;1.80;;
27895;SDS011;15241;48.374;10.876;2023-07-20T11:48:27;5.37;;;2.55;;
27895;SDS011;15241;48.374;10.876;2023-07-20T11:53:44;3.37;;;1.50;;
27895;SDS011;15241;48.374;10.876;2023-07-20T11:59:02;3.58;;;1.45;;
27895;SDS011;15241;48.374;10.876;2023-07-20T12:04:20;2.27;;;1.62;;
27895;SDS011;15241;48.374;10.876;2023-07-20T12:09:39;3.60;;;1.52;;
27895;SDS011;15241;48.374;10.876;2023-07-20T12:14:56;3.25;;;1.90;;
27895;SDS011;15241;48.374;10.876;2023-07-20T12:20:29;3.98;;;1.52;;
27895;SDS011;15241;48.374;10.876;2023-07-20T12:25:48;2.92;;;2.08;;
27895;SDS011;15241;48.374;10.876;2023-07-20T12:31:05;3.45;;;1.60;;
27895;SDS011;15241;48.374;10.876;2023-07-20T12:36:23;4.45;;;1.60;;
27895;SDS011;15241;48.374;10.876;2023-07-20T12:41:41;3.70;;;1.62;;
27895;SDS011;15241;48.374;10.876;2023-07-20T12:46:58;2.25;;;1.60;;
27895;SDS011;15241;48.374;10.876;2023-07-20T12:52:16;2.67;;;1.25;;
27895;SDS011;15241;48.374;10.876;2023-07-20T12:57:34;1.67;;;1.47;;
27895;SDS011;15241;48.374;10.876;2023-07-20T13:02:52;2.15;;;1.60;;
27895;SDS011;15241;48.374;10.876;2023-07-20T13:08:10;3.20;;;1.37;;
27895;SDS011;15241;48.374;10.876;2023-07-20T13:13:28;2.70;;;1.67;;
27895;SDS011;15241;48.374;10.876;2023-07-20T13:18:45;4.33;;;1.60;;
27895;SDS011;15241;48.374;10.876;2023-07-20T13:24:03;2.67;;;1.82;;
27895;SDS011;15241;48.374;10.876;2023-07-20T13:29:21;3.72;;;1.50;;
27895;SDS011;15241;48.374;10.876;2023-07-20T13:34:39;2.55;;;1.45;;
27895;SDS011;15241;48.374;10.876;2023-07-20T13:39:57;1.92;;;1.50;;
27895;SDS011;15241;48.374;10.876;2023-07-20T13:45:14;6.08;;;1.57;;
27895;SDS011;15241;48.374;10.876;2023-07-20T13:50:33;3.85;;;1.40;;
27895;SDS011;15241;48.374;10.876;2023-07-20T13:55:50;4.65;;;1.50;;
27895;SDS011;15241;48.374;10.876;2023-07-20T14:01:08;3.50;;;1.55;;
27895;SDS011;15241;48.374;10.876;2023-07-20T14:06:25;4.05;;;1.52;;
27895;SDS011;15241;48.374;10.876;2023-07-20T14:11:44;3.87;;;1.77;;
27895;SDS011;15241;48.374;10.876;2023-07-20T14:17:01;3.45;;;1.72;;
27895;SDS011;15241;48.374;10.876;2023-07-20T14:22:19;1.52;;;1.42;;
27895;SDS011;15241;48.374;10.876;2023-07-20T14:27:37;2.02;;;1.80;;
27895;SDS011;15241;48.374;10.876;2023-07-20T14:32:54;2.80;;;1.70;;
27895;SDS011;15241;48.374;10.876;2023-07-20T14:38:12;3.17;;;1.65;;
27895;SDS011;15241;48.374;10.876;2023-07-20T14:43:29;3.35;;;1.45;;
27895;SDS011;15241;48.374;10.876;2023-07-20T14:48:46;2.45;;;1.60;;
27895;SDS011;15241;48.374;10.876;2023-07-20T14:54:05;5.55;;;1.92;;
27895;SDS011;15241;48.374;10.876;2023-07-20T14:59:22;4.65;;;1.82;;
27895;SDS011;15241;48.374;10.876;2023-07-20T15:04:45;3.55;;;1.90;;
27895;SDS011;15241;48.374;10.876;2023-07-20T15:10:04;2.08;;;1.87;;
27895;SDS011;15241;48.374;10.876;2023-07-20T15:15:23;2.98;;;1.70;;
27895;SDS011;15241;48.374;10.876;2023-07-20T15:20:40;4.85;;;2.00;;
27895;SDS011;15241;48.374;10.876;2023-07-20T15:25:58;1.27;;;1.07;;
27895;SDS011;15241;48.374;10.876;2023-07-20T15:31:15;2.15;;;1.50;;
27895;SDS011;15241;48.374;10.876;2023-07-20T15:36:32;3.42;;;1.80;;
27895;SDS011;15241;48.374;10.876;2023-07-20T15:41:50;2.65;;;1.60;;
27895;SDS011;15241;48.374;10.876;2023-07-20T15:47:07;4.20;;;1.77;;
27895;SDS011;15241;48.374;10.876;2023-07-20T15:52:25;3.90;;;1.60;;
27895;SDS011;15241;48.374;10.876;2023-07-20T15:57:43;3.83;;;1.62;;
27895;SDS011;15241;48.374;10.876;2023-07-20T16:03:00;2.58;;;1.80;;
27895;SDS011;15241;48.374;10.876;2023-07-20T16:08:18;3.22;;;1.65;;
27895;SDS011;15241;48.374;10.876;2023-07-20T16:13:35;3.52;;;1.77;;
27895;SDS011;15241;48.374;10.876;2023-07-20T16:18:52;7.50;;;1.82;;
27895;SDS011;15241;48.374;10.876;2023-07-20T16:24:10;3.65;;;1.40;;
27895;SDS011;15241;48.374;10.876;2023-07-20T16:29:27;1.90;;;1.50;;
27895;SDS011;15241;48.374;10.876;2023-07-20T16:34:45;2.33;;;1.55;;
27895;SDS011;15241;48.374;10.876;2023-07-20T16:40:02;3.22;;;1.70;;
27895;SDS011;15241;48.374;10.876;2023-07-20T16:45:21;3.20;;;1.75;;
27895;SDS011;15241;48.374;10.876;2023-07-20T16:50:39;4.10;;;2.10;;
27895;SDS011;15241;48.374;10.876;2023-07-20T16:55:57;6.05;;;2.02;;
27895;SDS011;15241;48.374;10.876;2023-07-20T17:01:14;2.08;;;1.80;;
27895;SDS011;15241;48.374;10.876;2023-07-20T17:06:32;4.53;;;1.80;;
27895;SDS011;15241;48.374;10.876;2023-07-20T17:11:49;3.92;;;2.22;;
27895;SDS011;15241;48.374;10.876;2023-07-20T17:17:06;2.50;;;1.87;;
27895;SDS011;15241;48.374;10.876;2023-07-20T17:22:24;5.15;;;1.50;;
27895;SDS011;15241;48.374;10.876;2023-07-20T17:27:41;2.08;;;1.60;;
27895;SDS011;15241;48.374;10.876;2023-07-20T17:32:59;3.22;;;1.80;;
27895;SDS011;15241;48.374;10.876;2023-07-20T17:38:17;4.05;;;1.87;;
27895;SDS011;15241;48.374;10.876;2023-07-20T17:43:35;4.53;;;2.02;;
27895;SDS011;15241;48.374;10.876;2023-07-20T17:48:53;7.72;;;1.60;;
27895;SDS011;15241;48.374;10.876;2023-07-20T17:54:10;7.70;;;1.92;;
27895;SDS011;15241;48.374;10.876;2023-07-20T17:59:28;7.83;;;1.90;;
27895;SDS011;15241;48.374;10.876;2023-07-20T18:04:45;6.20;;;1.95;;
27895;SDS011;15241;48.374;10.876;2023-07-20T18:10:04;2.58;;;1.50;;
27895;SDS011;15241;48.374;10.876;2023-07-20T18:15:23;3.42;;;2.87;;
27895;SDS011;15241;48.374;10.876;2023-07-20T18:20:41;4.08;;;1.77;;
27895;SDS011;15241;48.374;10.876;2023-07-20T18:25:58;5.25;;;2.30;;
27895;SDS011;15241;48.374;10.876;2023-07-20T18:31:16;6.80;;;1.87;;
27895;SDS011;15241;48.374;10.876;2023-07-20T18:36:33;4.10;;;1.40;;
27895;SDS011;15241;48.374;10.876;2023-07-20T18:41:51;4.05;;;1.80;;
27895;SDS011;15241;48.374;10.876;2023-07-20T18:47:09;6.78;;;2.08;;
27895;SDS011;15241;48.374;10.876;2023-07-20T18:52:26;5.03;;;1.65;;
27895;SDS011;15241;48.374;10.876;2023-07-20T18:57:44;2.22;;;2.02;;
27895;SDS011;15241;48.374;10.876;2023-07-20T19:03:01;4.33;;;2.02;;
27895;SDS011;15241;48.374;10.876;2023-07-20T19:08:18;3.42;;;2.08;;
27895;SDS011;15241;48.374;10.876;2023-07-20T19:13:36;5.20;;;1.80;;
27895;SDS011;15241;48.374;10.876;2023-07-20T19:18:55;6.53;;;1.82;;
27895;SDS011;15241;48.374;10.876;2023-07-20T19:24:13;5.80;;;3.02;;
27895;SDS011;15241;48.374;10.876;2023-07-20T19:29:30;3.83;;;1.90;;
27895;SDS011;15241;48.374;10.876;2023-07-20T19:34:48;3.65;;;1.80;;
27895;SDS011;15241;48.374;10.876;2023-07-20T19:40:07;1.77;;;1.60;;
27895;SDS011;15241;48.374;10.876;2023-07-20T19:45:25;3.27;;;2.00;;
27895;SDS011;15241;48.374;10.876;2023-07-20T19:50:43;4.08;;;1.60;;
27895;SDS011;15241;48.374;10.876;2023-07-20T19:56:01;5.03;;;1.70;;
27895;SDS011;15241;48.374;10.876;2023-07-20T20:01:19;5.25;;;2.15;;
27895;SDS011;15241;48.374;10.876;2023-07-20T20:06:36;6.12;;;2.05;;
27895;SDS011;15241;48.374;10.876;2023-07-20T20:11:54;6.33;;;2.02;;
27895;SDS011;15241;48.374;10.876;2023-07-20T20:17:12;5.03;;;2.27;;
27895;SDS011;15241;48.374;10.876;2023-07-20T20:22:29;3.20;;;2.05;;
27895;SDS011;15241;48.374;10.876;2023-07-20T20:27:47;4.30;;;2.30;;
27895;SDS011;15241;48.374;10.876;2023-07-20T20:33:04;6.87;;;2.40;;
27895;SDS011;15241;48.374;10.876;2023-07-20T20:38:22;4.95;;;2.08;;
27895;SDS011;15241;48.374;10.876;2023-07-20T20:43:40;4.30;;;2.37;;
27895;SDS011;15241;48.374;10.876;2023-07-20T20:48:58;4.20;;;2.58;;
27895;SDS011;15241;48.374;10.876;2023-07-20T20:54:15;2.60;;;1.90;;
27895;SDS011;15241;48.374;10.876;2023-07-20T20:59:32;3.55;;;2.40;;
27895;SDS011;15241;48.374;10.876;2023-07-20T21:04:50;6.08;;;2.35;;
27895;SDS011;15241;48.374;10.876;2023-07-20T21:10:08;3.67;;;2.00;;
27895;SDS011;15241;48.374;10.876;2023-07-20T21:15:27;4.87;;;2.17;;
27895;SDS011;15241;48.374;10.876;2023-07-20T21:20:44;4.70;;;2.33;;
27895;SDS011;15241;48.374;10.876;2023-07-20T21:26:03;4.33;;;2.50;;
27895;SDS011;15241;48.374;10.876;2023-07-20T21:31:21;3.33;;;2.42;;
27895;SDS011;15241;48.374;10.876;2023-07-20T21:36:38;7.58;;;2.58;;
27895;SDS011;15241;48.374;10.876;2023-07-20T21:41:56;3.87;;;2.60;;
27895;SDS011;15241;48.374;10.876;2023-07-20T21:47:14;6.15;;;2.35;;
27895;SDS011;15241;48.374;10.876;2023-07-20T21:52:31;3.10;;;2.00;;
27895;SDS011;15241;48.374;10.876;2023-07-20T21:57:49;4.72;;;2.70;;
27895;SDS011;15241;48.374;10.876;2023-07-20T22:03:07;4.40;;;2.55;;
27895;SDS011;15241;48.374;10.876;2023-07-20T22:08:24;5.08;;;2.50;;
27895;SDS011;15241;48.374;10.876;2023-07-20T22:13:42;5.75;;;2.72;;
27895;SDS011;15241;48.374;10.876;2023-07-20T22:19:01;6.47;;;2.70;;
27895;SDS011;15241;48.374;10.876;2023-07-20T22:24:18;5.45;;;2.83;;
27895;SDS011;15241;48.374;10.876;2023-07-20T22:29:36;7.55;;;2.67;;
27895;SDS011;15241;48.374;10.876;2023-07-20T22:34:54;7.12;;;2.75;;
27895;SDS011;15241;48.374;10.876;2023-07-20T22:40:13;5.33;;;2.95;;
27895;SDS011;15241;48.374;10.876;2023-07-20T22:45:30;5.15;;;2.70;;
27895;SDS011;15241;48.374;10.876;2023-07-20T22:50:48;4.80;;;2.60;;
27895;SDS011;15241;48.374;10.876;2023-07-20T22:56:05;5.25;;;2.75;;
27895;SDS011;15241;48.374;10.876;2023-07-20T23:01:23;5.20;;;2.40;;
27895;SDS011;15241;48.374;10.876;2023-07-20T23:06:40;6.50;;;2.45;;
27895;SDS011;15241;48.374;10.876;2023-07-20T23:11:58;6.20;;;2.47;;
27895;SDS011;15241;48.374;10.876;2023-07-20T23:17:15;5.33;;;2.30;;
27895;SDS011;15241;48.374;10.876;2023-07-20T23:22:33;4.62;;;2.17;;
27895;SDS011;15241;48.374;10.876;2023-07-20T23:27:51;5.08;;;2.30;;
27895;SDS011;15241;48.374;10.876;2023-07-20T23:33:08;3.08;;;2.22;;
27895;SDS011;15241;48.374;10.876;2023-07-20T23:38:25;5.37;;;2.35;;
27895;SDS011;15241;48.374;10.876;2023-07-20T23:43:42;4.55;;;2.75;;
27895;SDS011;15241;48.374;10.876;2023-07-20T23:49:00;3.37;;;2.50;;
27895;SDS011;15241;48.374;10.876;2023-07-20T23:54:17;3.70;;;2.10;;
27895;SDS011;15241;48.374;10.876;2023-07-20T23:59:34;5.22;;;2.27;;
